createdAt,value
2022-08-25T00:00:02.732Z,80.10
2022-08-25T00:00:40.568Z,79.80
2022-08-25T00:01:15.135Z,80.30
2022-08-25T00:01:51.503Z,80.40
2022-08-25T00:02:24.169Z,81.30
2022-08-25T00:02:58.966Z,80.43
2022-08-25T00:03:35.925Z,78.82
2022-08-25T00:04:13.889Z,80.82
2022-08-25T00:04:53.963Z,81.50
2022-08-25T00:05:29.424Z,81.53
2022-08-25T00:06:05.798Z,80.32
2022-08-25T00:06:39.953Z,80.85
2022-08-25T00:07:12.563Z,80.35
2022-08-25T00:07:51.055Z,80.80
2022-08-25T00:08:24.533Z,80.70
2022-08-25T00:08:59.823Z,81.32
2022-08-25T00:09:35.337Z,79.85
2022-08-25T00:10:09.231Z,80.38
2022-08-25T00:10:43.102Z,79.95
2022-08-25T00:11:32.539Z,80.97
2022-08-25T00:12:06.169Z,81.47
2022-08-25T00:12:38.732Z,80.90
2022-08-25T00:13:12.641Z,80.18
2022-08-25T00:13:49.493Z,79.53
2022-08-25T00:14:24.669Z,80.28
2022-08-25T00:14:58.184Z,81.43
2022-08-25T00:15:32.829Z,80.47
2022-08-25T00:16:06.855Z,81.00
2022-08-25T00:16:40.389Z,80.45
2022-08-25T00:17:13.099Z,80.82
2022-08-25T00:17:45.574Z,80.63
2022-08-25T00:18:20.053Z,81.13
2022-08-25T00:18:55.350Z,81.95
2022-08-25T00:19:32.021Z,80.68
2022-08-25T00:20:06.054Z,81.93
2022-08-25T00:20:38.584Z,81.25
2022-08-25T00:21:17.465Z,82.13
2022-08-25T00:21:50.289Z,81.43
2022-08-25T00:22:22.785Z,80.47
2022-08-25T00:22:57.117Z,80.70
2022-08-25T00:23:29.706Z,80.70
2022-08-25T00:24:02.901Z,80.53
2022-08-25T00:24:36.671Z,83.38
2022-08-25T00:25:09.875Z,81.65
2022-08-25T00:25:43.851Z,81.57
2022-08-25T00:26:18.299Z,80.38
2022-08-25T00:26:54.121Z,80.85
2022-08-25T00:27:27.518Z,82.22
2022-08-25T00:28:04.159Z,81.82
2022-08-25T00:28:40.513Z,82.95
2022-08-25T00:29:13.457Z,82.10
2022-08-25T00:29:46.951Z,82.53
2022-08-25T00:30:19.685Z,82.47
2022-08-25T00:30:52.314Z,82.32
2022-08-25T00:31:37.845Z,82.20
2022-08-25T00:32:11.549Z,82.70
2022-08-25T00:32:55.002Z,81.68
2022-08-25T00:33:32.119Z,82.80
2022-08-25T00:34:07.445Z,82.18
2022-08-25T00:34:41.164Z,81.38
2022-08-25T00:35:13.644Z,84.10
2022-08-25T00:35:46.173Z,83.55
2022-08-25T00:36:21.503Z,83.00
2022-08-25T00:36:54.714Z,82.75
2022-08-25T00:37:28.641Z,82.65
2022-08-25T00:38:01.493Z,84.40
2022-08-25T00:38:34.123Z,83.25
2022-08-25T00:39:08.964Z,82.85
2022-08-25T00:39:41.529Z,83.25
2022-08-25T00:40:14.266Z,82.15
2022-08-25T00:41:05.741Z,82.72
2022-08-25T00:41:40.267Z,83.07
2022-08-25T00:42:16.338Z,83.80
2022-08-25T00:42:50.051Z,84.18
2022-08-25T00:43:23.223Z,83.20
2022-08-25T00:43:57.874Z,83.25
2022-08-25T00:44:34.106Z,85.20
2022-08-25T00:45:09.449Z,82.93
2022-08-25T00:45:41.964Z,82.30
2022-08-25T00:46:18.119Z,84.22
2022-08-25T00:46:54.124Z,84.68
2022-08-25T00:47:26.682Z,85.53
2022-08-25T00:48:00.263Z,83.50
2022-08-25T00:48:32.717Z,83.05
2022-08-25T00:49:08.097Z,83.20
2022-08-25T00:49:48.735Z,84.45
2022-08-25T00:50:22.762Z,84.53
2022-08-25T00:50:59.291Z,84.25
2022-08-25T00:51:38.400Z,85.40
2022-08-25T00:52:14.628Z,84.60
2022-08-25T00:52:50.942Z,85.63
2022-08-25T00:53:23.989Z,84.43
2022-08-25T00:53:58.277Z,84.47
2022-08-25T00:54:34.874Z,86.90
2022-08-25T00:55:12.565Z,84.68
2022-08-25T00:55:45.215Z,84.75
2022-08-25T00:56:21.395Z,85.57
2022-08-25T00:57:00.011Z,85.65
2022-08-25T00:57:37.633Z,84.20
2022-08-25T00:58:15.995Z,85.25
2022-08-25T00:58:49.561Z,85.60
2022-08-25T00:59:23.211Z,84.68
2022-08-25T00:59:56.041Z,84.82
2022-08-25T01:00:33.127Z,85.00
2022-08-25T01:01:05.922Z,84.60
2022-08-25T01:01:38.660Z,85.15
2022-08-25T01:02:13.848Z,84.78
2022-08-25T01:02:47.284Z,85.68
2022-08-25T01:03:20.540Z,85.22
2022-08-25T01:03:57.783Z,85.07
2022-08-25T01:04:30.513Z,84.55
2022-08-25T01:05:03.287Z,85.07
2022-08-25T01:05:37.558Z,84.67
2022-08-25T01:06:11.616Z,86.13
2022-08-25T01:06:45.231Z,84.72
2022-08-25T01:07:22.758Z,85.90
2022-08-25T01:07:59.640Z,86.07
2022-08-25T01:08:33.616Z,84.45
2022-08-25T01:09:08.127Z,87.10
2022-08-25T01:09:42.379Z,86.90
2022-08-25T01:10:15.266Z,87.03
2022-08-25T01:10:50.552Z,86.82
2022-08-25T01:11:24.973Z,86.13
2022-08-25T01:11:59.445Z,85.57
2022-08-25T01:12:32.068Z,84.90
2022-08-25T01:13:16.547Z,86.47
2022-08-25T01:13:55.967Z,87.40
2022-08-25T01:14:31.498Z,87.03
2022-08-25T01:15:06.746Z,85.95
2022-08-25T01:15:40.277Z,86.22
2022-08-25T01:16:15.502Z,87.30
2022-08-25T01:16:51.170Z,87.45
2022-08-25T01:17:33.651Z,86.43
2022-08-25T01:18:06.439Z,86.32
2022-08-25T01:18:49.046Z,87.15
2022-08-25T01:19:23.417Z,87.50
2022-08-25T01:19:55.949Z,86.63
2022-08-25T01:20:31.190Z,85.93
2022-08-25T01:21:05.250Z,86.85
2022-08-25T01:21:41.705Z,87.10
2022-08-25T01:22:14.468Z,88.57
2022-08-25T01:22:47.991Z,87.40
2022-08-25T01:23:29.149Z,86.38
2022-08-25T01:24:02.229Z,87.13
2022-08-25T01:24:39.514Z,87.15
2022-08-25T01:25:24.452Z,87.68
2022-08-25T01:26:03.704Z,86.30
2022-08-25T01:26:37.822Z,86.72
2022-08-25T01:27:10.783Z,88.00
2022-08-25T01:27:43.312Z,88.82
2022-08-25T01:28:17.253Z,87.18
2022-08-25T01:29:09.144Z,88.75
2022-08-25T01:29:41.963Z,89.13
2022-08-25T01:30:15.573Z,89.13
2022-08-25T01:30:49.399Z,89.15
2022-08-25T01:31:23.484Z,89.50
2022-08-25T01:32:00.690Z,87.68
2022-08-25T01:32:34.923Z,88.93
2022-08-25T01:33:09.381Z,89.28
2022-08-25T01:33:42.913Z,90.47
2022-08-25T01:34:16.644Z,89.00
2022-08-25T01:34:51.945Z,89.00
2022-08-25T01:35:24.654Z,88.05
2022-08-25T01:35:57.205Z,88.55
2022-08-25T01:36:31.499Z,88.75
2022-08-25T01:37:06.045Z,88.97
2022-08-25T01:37:38.587Z,90.75
2022-08-25T01:38:11.546Z,88.30
2022-08-25T01:38:45.153Z,90.22
2022-08-25T01:39:17.793Z,90.03
2022-08-25T01:39:50.356Z,89.75
2022-08-25T01:40:24.108Z,90.38
2022-08-25T01:40:56.663Z,89.75
2022-08-25T01:41:40.152Z,90.30
2022-08-25T01:42:35.507Z,89.45
2022-08-25T01:43:21.238Z,90.80
2022-08-25T01:43:53.863Z,90.07
2022-08-25T01:44:27.393Z,90.97
2022-08-25T01:45:00.001Z,91.05
2022-08-25T01:45:32.685Z,91.40
2022-08-25T01:46:06.642Z,90.07
2022-08-25T01:46:39.243Z,89.88
2022-08-25T01:47:12.373Z,91.50
2022-08-25T01:47:45.829Z,91.15
2022-08-25T01:48:19.483Z,90.22
2022-08-25T01:48:53.021Z,90.47
2022-08-25T01:49:27.015Z,91.60
2022-08-25T01:49:59.488Z,90.72
2022-08-25T01:50:32.643Z,89.93
2022-08-25T01:51:06.209Z,90.53
2022-08-25T01:51:44.412Z,90.18
2022-08-25T01:52:20.120Z,91.00
2022-08-25T01:53:00.746Z,88.65
2022-08-25T01:53:33.825Z,89.93
2022-08-25T01:54:06.465Z,89.50
2022-08-25T01:54:40.017Z,90.18
2022-08-25T01:55:12.630Z,90.43
2022-08-25T01:55:55.896Z,91.37
2022-08-25T01:56:29.545Z,92.15
2022-08-25T01:57:02.233Z,92.45
2022-08-25T01:57:34.801Z,90.57
2022-08-25T01:58:08.277Z,90.43
2022-08-25T01:58:43.961Z,91.15
2022-08-25T01:59:18.928Z,92.35
2022-08-25T01:59:56.423Z,91.90
2022-08-25T02:00:29.241Z,90.97
2022-08-25T02:01:05.075Z,91.53
2022-08-25T02:01:37.677Z,92.22
2022-08-25T02:02:10.564Z,89.40
2022-08-25T02:02:44.640Z,90.85
2022-08-25T02:03:19.001Z,91.18
2022-08-25T02:03:53.838Z,91.03
2022-08-25T02:04:29.449Z,89.93
2022-08-25T02:05:02.045Z,91.63
2022-08-25T02:05:35.705Z,90.50
2022-08-25T02:06:09.452Z,91.47
2022-08-25T02:06:43.311Z,91.55
2022-08-25T02:07:15.855Z,91.57
2022-08-25T02:07:49.338Z,91.28
2022-08-25T02:08:23.177Z,91.72
2022-08-25T02:08:58.427Z,92.32
2022-08-25T02:09:31.943Z,94.03
2022-08-25T02:10:06.650Z,92.53
2022-08-25T02:10:40.477Z,93.30
2022-08-25T02:11:15.398Z,93.32
2022-08-25T02:11:48.398Z,92.00
2022-08-25T02:12:20.929Z,93.38
2022-08-25T02:12:54.543Z,93.03
2022-08-25T02:13:31.560Z,92.82
2022-08-25T02:14:08.716Z,92.35
2022-08-25T02:14:42.171Z,92.97
2022-08-25T02:15:14.684Z,93.82
2022-08-25T02:15:50.861Z,94.00
2022-08-25T02:16:28.321Z,91.15
2022-08-25T02:17:01.047Z,91.05
2022-08-25T02:17:34.675Z,92.55
2022-08-25T02:18:08.345Z,91.77
2022-08-25T02:18:40.860Z,91.70
2022-08-25T02:19:13.495Z,90.70
2022-08-25T02:19:47.051Z,91.35
2022-08-25T02:20:19.613Z,92.53
2022-08-25T02:20:52.482Z,92.43
2022-08-25T02:21:26.043Z,91.03
2022-08-25T02:22:00.876Z,91.18
2022-08-25T02:22:33.441Z,90.32
2022-08-25T02:23:07.503Z,92.65
2022-08-25T02:23:40.199Z,92.35
2022-08-25T02:24:13.189Z,92.28
2022-08-25T02:24:46.707Z,92.55
2022-08-25T02:25:19.473Z,92.13
2022-08-25T02:25:51.917Z,91.65
2022-08-25T02:26:25.897Z,94.00
2022-08-25T02:26:59.355Z,92.68
2022-08-25T02:27:31.808Z,93.20
2022-08-25T02:28:04.825Z,93.28
2022-08-25T02:28:38.854Z,93.70
2022-08-25T02:29:11.633Z,92.88
2022-08-25T02:29:44.111Z,95.80
2022-08-25T02:30:18.822Z,94.18
2022-08-25T02:30:52.979Z,95.72
2022-08-25T02:31:31.357Z,94.47
2022-08-25T02:32:05.455Z,97.43
2022-08-25T02:32:37.988Z,96.82
2022-08-25T02:33:11.059Z,96.93
2022-08-25T02:33:45.007Z,97.03
2022-08-25T02:34:17.504Z,98.60
2022-08-25T02:34:50.235Z,100.57
2022-08-25T02:35:24.089Z,100.90
2022-08-25T02:35:58.889Z,101.53
2022-08-25T02:36:32.295Z,102.07
2022-08-25T02:37:08.223Z,102.25
2022-08-25T02:37:40.947Z,102.18
2022-08-25T02:38:13.415Z,103.25
2022-08-25T02:38:47.484Z,103.40
2022-08-25T02:39:20.062Z,103.45
2022-08-25T02:39:52.570Z,104.03
2022-08-25T02:40:26.829Z,105.47
2022-08-25T02:41:00.399Z,104.68
2022-08-25T02:41:33.618Z,104.53
2022-08-25T02:42:07.411Z,102.90
2022-08-25T02:42:40.041Z,103.50
2022-08-25T02:43:16.638Z,101.75
2022-08-25T02:43:49.676Z,100.30
2022-08-25T02:44:22.224Z,99.22
2022-08-25T02:44:56.018Z,100.50
2022-08-25T02:45:28.725Z,100.30
2022-08-25T02:46:01.483Z,99.93
2022-08-25T02:46:36.669Z,101.70
2022-08-25T02:47:09.854Z,98.45
2022-08-25T02:47:42.339Z,99.45
2022-08-25T02:48:15.915Z,99.82
2022-08-25T02:48:49.009Z,98.40
2022-08-25T02:49:22.510Z,97.55
2022-08-25T02:49:55.688Z,98.93
2022-08-25T02:50:28.134Z,97.50
2022-08-25T02:51:01.881Z,97.88
2022-08-25T02:51:36.316Z,96.97
2022-08-25T02:52:10.174Z,97.60
2022-08-25T02:52:42.700Z,97.50
2022-08-25T02:53:16.207Z,97.88
2022-08-25T02:53:49.065Z,97.43
2022-08-25T02:54:23.141Z,96.32
2022-08-25T02:54:56.608Z,97.40
2022-08-25T02:55:29.120Z,98.30
2022-08-25T02:56:02.321Z,96.60
2022-08-25T02:56:35.795Z,96.90
2022-08-25T02:57:08.643Z,95.93
2022-08-25T02:57:42.051Z,97.45
2022-08-25T02:58:15.514Z,95.65
2022-08-25T02:58:48.287Z,96.50
2022-08-25T02:59:21.042Z,98.13
2022-08-25T02:59:54.874Z,97.22
2022-08-25T03:00:27.690Z,96.13
2022-08-25T03:01:01.069Z,96.57
2022-08-25T03:01:34.735Z,97.10
2022-08-25T03:02:07.558Z,98.95
2022-08-25T03:02:41.333Z,99.38
2022-08-25T03:03:15.396Z,98.45
2022-08-25T03:03:48.852Z,98.72
2022-08-25T03:04:21.582Z,97.43
2022-08-25T03:04:55.586Z,97.88
2022-08-25T03:05:28.159Z,99.95
2022-08-25T03:06:02.054Z,97.43
2022-08-25T03:06:35.727Z,99.30
2022-08-25T03:07:09.672Z,99.78
2022-08-25T03:07:44.999Z,101.78
2022-08-25T03:08:18.611Z,102.72
2022-08-25T03:08:52.049Z,103.20
2022-08-25T03:09:24.577Z,104.38
2022-08-25T03:09:58.034Z,102.57
2022-08-25T03:10:30.733Z,105.30
2022-08-25T03:11:03.724Z,105.15
2022-08-25T03:11:38.290Z,104.32
2022-08-25T03:12:11.938Z,102.00
2022-08-25T03:12:45.443Z,103.35
2022-08-25T03:13:17.971Z,104.22
2022-08-25T03:13:52.022Z,102.78
2022-08-25T03:14:24.586Z,100.93
2022-08-25T03:14:57.022Z,102.80
2022-08-25T03:15:30.743Z,102.15
2022-08-25T03:16:04.874Z,100.22
2022-08-25T03:16:37.649Z,100.82
2022-08-25T03:17:11.420Z,101.13
2022-08-25T03:17:45.539Z,101.38
2022-08-25T03:18:18.502Z,100.50
2022-08-25T03:18:51.952Z,101.28
2022-08-25T03:19:24.759Z,100.80
2022-08-25T03:19:57.281Z,101.30
2022-08-25T03:20:30.738Z,102.15
2022-08-25T03:21:03.703Z,101.75
2022-08-25T03:21:38.585Z,101.65
2022-08-25T03:22:14.524Z,101.72
2022-08-25T03:22:54.302Z,101.35
2022-08-25T03:23:27.134Z,101.50
2022-08-25T03:24:01.225Z,101.85
2022-08-25T03:24:33.779Z,102.53
2022-08-25T03:25:25.880Z,101.53
2022-08-25T03:26:16.661Z,103.00
2022-08-25T03:26:55.810Z,100.28
2022-08-25T03:27:32.676Z,102.78
2022-08-25T03:28:06.860Z,102.28
2022-08-25T03:28:39.467Z,104.30
2022-08-25T03:29:13.917Z,104.43
2022-08-25T03:29:46.940Z,101.15
2022-08-25T03:30:19.947Z,102.32
2022-08-25T03:30:56.124Z,102.07
2022-08-25T03:31:28.928Z,102.22
2022-08-25T03:32:01.963Z,101.38
2022-08-25T03:32:35.518Z,104.95
2022-08-25T03:33:08.055Z,101.25
2022-08-25T03:33:40.739Z,99.93
2022-08-25T03:34:14.478Z,101.57
2022-08-25T03:34:46.978Z,101.88
2022-08-25T03:35:19.772Z,101.40
2022-08-25T03:35:53.210Z,102.87
2022-08-25T03:36:27.736Z,101.53
2022-08-25T03:37:00.830Z,104.13
2022-08-25T03:37:34.773Z,102.03
2022-08-25T03:38:08.267Z,103.20
2022-08-25T03:38:42.358Z,103.32
2022-08-25T03:39:17.361Z,104.60
2022-08-25T03:39:49.940Z,102.45
2022-08-25T03:40:23.349Z,103.55
2022-08-25T03:41:00.100Z,104.32
2022-08-25T03:41:37.514Z,105.10
2022-08-25T03:42:12.624Z,103.53
2022-08-25T03:42:47.436Z,102.45
2022-08-25T03:43:20.573Z,104.00
2022-08-25T03:43:53.558Z,102.53
2022-08-25T03:44:27.186Z,103.07
2022-08-25T03:45:06.364Z,102.63
2022-08-25T03:45:41.362Z,102.68
2022-08-25T03:46:22.159Z,102.30
2022-08-25T03:46:54.701Z,101.78
2022-08-25T03:47:29.455Z,101.28
2022-08-25T03:48:02.179Z,101.97
2022-08-25T03:48:34.716Z,100.03
2022-08-25T03:49:11.152Z,101.10
2022-08-25T03:49:43.632Z,100.10
2022-08-25T03:50:17.364Z,101.15
2022-08-25T03:50:54.382Z,100.13
2022-08-25T03:51:31.141Z,102.45
2022-08-25T03:52:03.986Z,98.75
2022-08-25T03:52:42.592Z,99.57
2022-08-25T03:53:15.929Z,99.88
2022-08-25T03:53:48.623Z,99.20
2022-08-25T03:54:24.237Z,97.53
2022-08-25T03:54:56.768Z,96.82
2022-08-25T03:55:31.092Z,97.85
2022-08-25T03:56:06.481Z,98.07
2022-08-25T03:56:39.758Z,97.90
2022-08-25T03:57:13.859Z,98.53
2022-08-25T03:57:46.518Z,97.25
2022-08-25T03:58:20.046Z,96.57
2022-08-25T03:58:52.791Z,98.32
2022-08-25T03:59:27.070Z,98.70
2022-08-25T04:00:00.660Z,98.07
2022-08-25T04:00:33.127Z,96.47
2022-08-25T04:01:05.856Z,97.45
2022-08-25T04:01:41.329Z,97.78
2022-08-25T04:02:15.038Z,97.07
2022-08-25T04:02:47.963Z,97.30
2022-08-25T04:03:21.549Z,95.78
2022-08-25T04:03:54.530Z,98.07
2022-08-25T04:04:27.039Z,96.05
2022-08-25T04:05:00.975Z,96.63
2022-08-25T04:05:33.625Z,95.82
2022-08-25T04:06:07.973Z,97.40
2022-08-25T04:06:41.914Z,96.47
2022-08-25T04:07:14.554Z,95.78
2022-08-25T04:07:48.534Z,94.57
2022-08-25T04:08:22.506Z,94.63
2022-08-25T04:08:55.725Z,95.20
2022-08-25T04:09:28.252Z,96.25
2022-08-25T04:10:03.921Z,94.55
2022-08-25T04:10:38.813Z,94.97
2022-08-25T04:11:13.963Z,95.97
2022-08-25T04:11:47.524Z,93.70
2022-08-25T04:12:25.858Z,94.47
2022-08-25T04:12:58.416Z,94.22
2022-08-25T04:13:30.992Z,95.07
2022-08-25T04:14:05.831Z,95.25
2022-08-25T04:14:38.303Z,94.25
2022-08-25T04:15:11.655Z,94.50
2022-08-25T04:15:45.525Z,94.43
2022-08-25T04:16:20.275Z,94.43
2022-08-25T04:16:53.396Z,94.82
2022-08-25T04:17:26.974Z,95.03
2022-08-25T04:17:59.816Z,94.03
2022-08-25T04:18:34.246Z,94.70
2022-08-25T04:19:10.326Z,94.47
2022-08-25T04:19:42.814Z,93.85
2022-08-25T04:20:16.445Z,94.75
2022-08-25T04:20:49.039Z,95.15
2022-08-25T04:21:23.686Z,94.95
2022-08-25T04:21:57.273Z,95.47
2022-08-25T04:22:31.051Z,96.63
2022-08-25T04:23:05.898Z,97.38
2022-08-25T04:23:40.618Z,97.85
2022-08-25T04:24:14.289Z,95.10
2022-08-25T04:24:46.790Z,95.97
2022-08-25T04:25:20.284Z,95.72
2022-08-25T04:25:53.000Z,94.90
2022-08-25T04:26:27.561Z,95.88
2022-08-25T04:27:01.138Z,95.13
2022-08-25T04:27:33.833Z,96.65
2022-08-25T04:28:06.856Z,96.25
2022-08-25T04:28:40.871Z,95.97
2022-08-25T04:29:17.058Z,94.78
2022-08-25T04:29:49.527Z,94.70
2022-08-25T04:30:23.268Z,95.10
2022-08-25T04:30:55.828Z,94.80
2022-08-25T04:31:30.557Z,95.40
2022-08-25T04:32:04.684Z,93.65
2022-08-25T04:32:37.607Z,92.97
2022-08-25T04:33:10.100Z,94.70
2022-08-25T04:33:44.043Z,95.05
2022-08-25T04:34:30.311Z,94.53
2022-08-25T04:35:04.380Z,94.32
2022-08-25T04:35:37.956Z,94.30
2022-08-25T04:36:12.533Z,94.53
2022-08-25T04:36:45.330Z,94.90
2022-08-25T04:37:26.110Z,93.60
2022-08-25T04:37:58.606Z,92.80
2022-08-25T04:38:32.604Z,94.25
2022-08-25T04:39:06.554Z,92.93
2022-08-25T04:39:39.208Z,93.65
2022-08-25T04:40:12.577Z,91.95
2022-08-25T04:40:46.052Z,91.50
2022-08-25T04:41:21.183Z,92.35
2022-08-25T04:41:53.790Z,90.68
2022-08-25T04:42:27.395Z,91.55
2022-08-25T04:43:00.269Z,91.40
2022-08-25T04:43:33.600Z,91.70
2022-08-25T04:44:07.458Z,91.50
2022-08-25T04:44:40.546Z,91.13
2022-08-25T04:45:13.303Z,90.63
2022-08-25T04:45:46.855Z,92.35
2022-08-25T04:46:21.081Z,91.47
2022-08-25T04:46:53.614Z,91.60
2022-08-25T04:47:27.716Z,91.78
2022-08-25T04:48:01.638Z,91.53
2022-08-25T04:48:35.155Z,91.22
2022-08-25T04:49:07.698Z,90.28
2022-08-25T04:49:41.360Z,89.95
2022-08-25T04:50:13.928Z,91.13
2022-08-25T04:50:46.451Z,91.55
2022-08-25T04:51:23.344Z,90.47
2022-08-25T04:51:57.408Z,89.60
2022-08-25T04:52:31.100Z,89.32
2022-08-25T04:53:03.597Z,91.38
2022-08-25T04:53:37.626Z,90.50
2022-08-25T04:54:16.054Z,90.53
2022-08-25T04:54:48.610Z,90.50
2022-08-25T04:55:21.053Z,89.53
2022-08-25T04:55:54.556Z,89.80
2022-08-25T04:56:27.102Z,90.40
2022-08-25T04:56:59.573Z,89.22
2022-08-25T04:57:33.052Z,89.45
2022-08-25T04:58:05.684Z,89.28
2022-08-25T04:58:47.617Z,89.47
2022-08-25T04:59:21.402Z,89.82
2022-08-25T04:59:54.219Z,89.30
2022-08-25T05:00:27.728Z,89.57
2022-08-25T05:01:03.183Z,89.82
2022-08-25T05:01:35.947Z,87.70
2022-08-25T05:02:10.312Z,88.15
2022-08-25T05:02:42.910Z,88.55
2022-08-25T05:03:15.470Z,87.55
2022-08-25T05:03:53.958Z,88.25
2022-08-25T05:04:28.766Z,85.95
2022-08-25T05:05:04.093Z,88.05
2022-08-25T05:05:37.908Z,87.10
2022-08-25T05:06:15.316Z,86.95
2022-08-25T05:06:49.749Z,87.35
2022-08-25T05:07:22.215Z,87.72
2022-08-25T05:07:55.733Z,86.38
2022-08-25T05:08:28.471Z,87.70
2022-08-25T05:09:04.358Z,86.55
2022-08-25T05:09:38.953Z,87.57
2022-08-25T05:10:11.557Z,86.30
2022-08-25T05:10:44.672Z,86.65
2022-08-25T05:11:20.100Z,84.63
2022-08-25T05:11:56.330Z,86.00
2022-08-25T05:12:29.131Z,85.18
2022-08-25T05:13:02.615Z,85.70
2022-08-25T05:13:35.789Z,85.13
2022-08-25T05:14:12.077Z,84.40
2022-08-25T05:14:45.619Z,83.83
2022-08-25T05:15:37.138Z,84.97
2022-08-25T05:16:11.442Z,83.22
2022-08-25T05:16:45.231Z,83.07
2022-08-25T05:17:17.927Z,82.82
2022-08-25T05:17:55.210Z,84.15
2022-08-25T05:18:31.877Z,83.13
2022-08-25T05:19:04.871Z,82.88
2022-08-25T05:19:37.378Z,83.22
2022-08-25T05:20:11.822Z,81.38
2022-08-25T05:20:44.318Z,82.68
2022-08-25T05:21:19.715Z,81.93
2022-08-25T05:21:53.923Z,80.90
2022-08-25T05:22:26.527Z,80.00
2022-08-25T05:22:59.177Z,81.50
2022-08-25T05:23:32.903Z,81.75
2022-08-25T05:24:07.774Z,80.10
2022-08-25T05:24:41.245Z,79.82
2022-08-25T05:25:14.699Z,79.57
2022-08-25T05:25:47.365Z,79.68
2022-08-25T05:26:22.175Z,79.28
2022-08-25T05:26:55.412Z,79.13
2022-08-25T05:27:28.824Z,79.05
2022-08-25T05:28:01.378Z,77.93
2022-08-25T05:28:34.478Z,79.03
2022-08-25T05:29:09.996Z,78.22
2022-08-25T05:29:42.527Z,78.00
2022-08-25T05:30:14.997Z,77.97
2022-08-25T05:30:50.213Z,77.25
2022-08-25T05:31:24.421Z,76.97
2022-08-25T05:31:57.051Z,77.22
2022-08-25T05:32:30.602Z,76.97
2022-08-25T05:33:03.904Z,76.15
2022-08-25T05:33:37.153Z,76.95
2022-08-25T05:34:10.817Z,77.07
2022-08-25T05:34:43.341Z,76.53
2022-08-25T05:35:16.145Z,77.07
2022-08-25T05:35:49.564Z,76.20
2022-08-25T05:36:27.345Z,75.70
2022-08-25T05:37:03.318Z,75.32
2022-08-25T05:37:35.812Z,75.75
2022-08-25T05:38:08.385Z,75.03
2022-08-25T05:38:49.266Z,74.53
2022-08-25T05:39:23.148Z,75.20
2022-08-25T05:39:59.723Z,74.47
2022-08-25T05:40:33.294Z,74.68
2022-08-25T05:41:07.689Z,73.60
2022-08-25T05:41:41.341Z,74.30
2022-08-25T05:42:13.953Z,74.85
2022-08-25T05:42:47.411Z,73.30
2022-08-25T05:43:19.932Z,74.68
2022-08-25T05:43:52.405Z,73.32
2022-08-25T05:44:25.842Z,73.32
2022-08-25T05:44:58.352Z,73.65
2022-08-25T05:45:31.827Z,72.68
2022-08-25T05:46:05.478Z,72.63
2022-08-25T05:46:38.392Z,72.47
2022-08-25T05:47:10.932Z,72.00
2022-08-25T05:47:44.591Z,72.05
2022-08-25T05:48:17.075Z,71.85
2022-08-25T05:48:50.092Z,71.93
2022-08-25T05:49:23.560Z,71.30
2022-08-25T05:49:56.201Z,72.05
2022-08-25T05:50:29.341Z,72.20
2022-08-25T05:51:05.727Z,71.22
2022-08-25T05:51:38.357Z,71.95
2022-08-25T05:52:16.386Z,71.93
2022-08-25T05:52:50.573Z,71.05
2022-08-25T05:53:23.691Z,71.35
2022-08-25T05:53:57.201Z,71.28
2022-08-25T05:54:31.681Z,71.38
2022-08-25T05:55:05.360Z,71.57
2022-08-25T05:55:38.891Z,71.57
2022-08-25T05:56:13.904Z,71.07
2022-08-25T05:56:47.468Z,71.30
2022-08-25T05:57:19.957Z,71.28
2022-08-25T05:57:52.405Z,71.35
2022-08-25T05:58:28.261Z,70.40
2022-08-25T05:59:00.731Z,70.20
2022-08-25T05:59:33.331Z,70.82
2022-08-25T06:00:08.883Z,71.63
2022-08-25T06:00:50.805Z,71.53
2022-08-25T06:01:45.263Z,71.30
2022-08-25T06:02:36.573Z,71.35
2022-08-25T06:03:09.473Z,71.15
2022-08-25T06:03:43.148Z,71.40
2022-08-25T06:04:17.686Z,71.45
2022-08-25T06:04:51.251Z,70.88
2022-08-25T06:05:24.153Z,70.32
2022-08-25T06:06:07.282Z,70.60
2022-08-25T06:06:41.560Z,69.95
2022-08-25T06:07:14.007Z,70.30
2022-08-25T06:07:47.368Z,70.50
2022-08-25T06:08:20.877Z,70.60
2022-08-25T06:08:53.442Z,70.65
2022-08-25T06:09:26.453Z,70.55
2022-08-25T06:10:01.270Z,70.63
2022-08-25T06:10:34.597Z,69.70
2022-08-25T06:11:08.381Z,69.78
2022-08-25T06:11:41.275Z,70.15
2022-08-25T06:12:15.048Z,69.68
2022-08-25T06:12:48.310Z,70.43
2022-08-25T06:13:28.820Z,69.38
2022-08-25T06:14:01.567Z,70.07
2022-08-25T06:14:34.091Z,70.55
2022-08-25T06:15:08.420Z,69.25
2022-08-25T06:15:40.981Z,70.47
2022-08-25T06:16:14.640Z,70.35
2022-08-25T06:16:48.806Z,69.60
2022-08-25T06:17:22.655Z,70.22
2022-08-25T06:18:01.647Z,69.22
2022-08-25T06:18:35.783Z,69.38
2022-08-25T06:19:09.914Z,69.75
2022-08-25T06:19:43.431Z,69.50
2022-08-25T06:20:18.312Z,69.15
2022-08-25T06:20:53.445Z,68.95
2022-08-25T06:21:26.030Z,69.22
2022-08-25T06:22:00.196Z,70.30
2022-08-25T06:22:32.745Z,68.95
2022-08-25T06:23:05.321Z,69.60
2022-08-25T06:23:39.428Z,69.30
2022-08-25T06:24:15.374Z,68.97
2022-08-25T06:24:48.427Z,69.82
2022-08-25T06:25:24.966Z,69.65
2022-08-25T06:25:57.468Z,68.93
2022-08-25T06:26:29.976Z,69.90
2022-08-25T06:27:04.332Z,69.70
2022-08-25T06:27:37.542Z,69.10
2022-08-25T06:28:09.999Z,69.53
2022-08-25T06:28:44.181Z,68.97
2022-08-25T06:29:17.019Z,68.63
2022-08-25T06:29:49.634Z,69.10
2022-08-25T06:30:29.191Z,69.57
2022-08-25T06:31:03.433Z,69.13
2022-08-25T06:31:36.083Z,68.55
2022-08-25T06:32:09.881Z,69.03
2022-08-25T06:32:44.491Z,68.68
2022-08-25T06:33:17.984Z,69.05
2022-08-25T06:33:51.568Z,69.22
2022-08-25T06:34:25.026Z,69.10
2022-08-25T06:34:58.737Z,69.20
2022-08-25T06:35:32.293Z,68.93
2022-08-25T06:36:08.674Z,69.05
2022-08-25T06:36:41.493Z,68.25
2022-08-25T06:37:15.060Z,68.93
2022-08-25T06:37:47.621Z,68.88
2022-08-25T06:38:20.134Z,69.82
2022-08-25T06:38:54.568Z,69.05
2022-08-25T06:39:27.101Z,69.25
2022-08-25T06:39:59.628Z,68.65
2022-08-25T06:40:34.598Z,68.68
2022-08-25T06:41:08.642Z,69.53
2022-08-25T06:41:41.118Z,69.25
2022-08-25T06:42:14.611Z,69.30
2022-08-25T06:42:49.110Z,69.70
2022-08-25T06:43:22.056Z,68.70
2022-08-25T06:43:56.030Z,69.07
2022-08-25T06:44:37.568Z,69.00
2022-08-25T06:45:10.533Z,68.93
2022-08-25T06:45:44.089Z,69.53
2022-08-25T06:46:19.715Z,69.07
2022-08-25T06:46:53.329Z,69.05
2022-08-25T06:47:25.873Z,68.90
2022-08-25T06:47:59.348Z,68.90
2022-08-25T06:48:34.376Z,68.70
2022-08-25T06:49:08.102Z,68.20
2022-08-25T06:49:42.512Z,69.50
2022-08-25T06:50:15.080Z,68.50
2022-08-25T06:50:47.914Z,70.07
2022-08-25T06:51:22.602Z,68.65
2022-08-25T06:51:55.041Z,69.80
2022-08-25T06:52:29.229Z,69.22
2022-08-25T06:53:03.473Z,69.10
2022-08-25T06:53:36.159Z,69.22
2022-08-25T06:54:10.042Z,69.40
2022-08-25T06:54:43.700Z,67.90
2022-08-25T06:55:19.902Z,69.00
2022-08-25T06:56:03.379Z,68.68
2022-08-25T06:56:40.808Z,69.05
2022-08-25T06:57:14.976Z,69.05
2022-08-25T06:57:47.476Z,68.35
2022-08-25T06:58:19.942Z,68.80
2022-08-25T06:58:53.443Z,69.05
2022-08-25T06:59:26.593Z,69.30
2022-08-25T07:00:07.508Z,68.55
2022-08-25T07:00:40.078Z,68.73
2022-08-25T07:01:19.969Z,68.20
2022-08-25T07:01:54.166Z,68.95
2022-08-25T07:02:26.919Z,68.53
2022-08-25T07:03:01.123Z,68.53
2022-08-25T07:03:34.796Z,69.10
2022-08-25T07:04:12.761Z,68.90
2022-08-25T07:04:47.225Z,68.68
2022-08-25T07:05:27.383Z,69.28
2022-08-25T07:06:08.334Z,68.75
2022-08-25T07:06:41.249Z,69.03
2022-08-25T07:07:14.751Z,70.13
2022-08-25T07:07:47.432Z,69.30
2022-08-25T07:08:20.298Z,69.63
2022-08-25T07:08:54.293Z,68.95
2022-08-25T07:09:26.766Z,69.70
2022-08-25T07:09:59.479Z,69.72
2022-08-25T07:10:32.940Z,69.43
2022-08-25T07:11:16.284Z,69.40
2022-08-25T07:11:50.219Z,69.60
2022-08-25T07:12:24.622Z,69.50
2022-08-25T07:12:58.046Z,69.70
2022-08-25T07:13:32.130Z,69.18
2022-08-25T07:14:06.815Z,69.40
2022-08-25T07:14:40.316Z,69.55
2022-08-25T07:15:26.030Z,69.40
2022-08-25T07:15:58.955Z,69.15
2022-08-25T07:16:33.044Z,69.13
2022-08-25T07:17:10.482Z,68.80
2022-08-25T07:17:46.047Z,69.65
2022-08-25T07:18:19.675Z,69.20
2022-08-25T07:18:56.356Z,70.68
2022-08-25T07:19:30.158Z,69.50
2022-08-25T07:20:03.923Z,69.53
2022-08-25T07:20:38.054Z,69.20
2022-08-25T07:21:11.062Z,68.93
2022-08-25T07:21:45.791Z,69.65